createdAt,value
2018-08-19T00:02:05.271Z,11.27
2018-08-19T00:04:33.894Z,12.43
2018-08-19T00:07:02.625Z,11.77
2018-08-19T00:09:33.736Z,11.80
2018-08-19T00:12:02.186Z,12.27
2018-08-19T00:14:33.634Z,8.90
2018-08-19T00:17:02.787Z,13.63
2018-08-19T00:19:32.676Z,11.40
2018-08-19T00:22:01.014Z,11.43
2018-08-19T00:24:29.386Z,9.57
2018-08-19T00:26:57.649Z,7.33
2018-08-19T00:29:43.598Z,14.43
2018-08-19T00:32:12.787Z,11.67
2018-08-19T00:34:41.025Z,9.67
2018-08-19T00:37:09.298Z,11.50
2018-08-19T00:39:37.666Z,7.63
2018-08-19T00:42:05.890Z,7.67
2018-08-19T00:44:34.434Z,7.90
2018-08-19T00:47:02.676Z,10.57
2018-08-19T00:49:30.955Z,10.40
2018-08-19T00:52:01.498Z,7.37
2018-08-19T00:54:30.844Z,8.13
2018-08-19T00:57:00.165Z,6.83
2018-08-19T00:59:29.582Z,7.20
2018-08-19T01:01:58.027Z,9.70
2018-08-19T01:04:26.867Z,10.60
2018-08-19T01:06:58.387Z,8.33
2018-08-19T01:09:29.656Z,6.67
2018-08-19T01:11:57.966Z,8.87
2018-08-19T01:14:26.255Z,8.30
2018-08-19T01:16:54.580Z,9.13
2018-08-19T01:19:22.849Z,6.43
2018-08-19T01:21:52.537Z,8.77
2018-08-19T01:24:21.173Z,6.00
2018-08-19T01:26:49.496Z,7.20
2018-08-19T01:29:33.497Z,6.27
2018-08-19T01:32:05.915Z,7.93
2018-08-19T01:34:34.317Z,9.43
2018-08-19T01:37:02.598Z,10.10
2018-08-19T01:39:30.831Z,8.80
2018-08-19T01:41:59.169Z,7.77
2018-08-19T01:44:27.408Z,9.80
2018-08-19T01:46:55.754Z,8.33
2018-08-19T01:49:24.009Z,9.60
2018-08-19T01:51:52.258Z,7.50
2018-08-19T01:54:21.643Z,8.90
2018-08-19T01:56:57.615Z,7.83
2018-08-19T01:59:29.184Z,8.00
2018-08-19T02:02:01.389Z,9.83
2018-08-19T02:04:31.162Z,6.83
2018-08-19T02:06:59.693Z,9.27
2018-08-19T02:09:27.970Z,9.43
2018-08-19T02:11:57.385Z,9.57
2018-08-19T02:14:26.051Z,7.17
2018-08-19T02:16:55.358Z,7.70
2018-08-19T02:19:23.658Z,8.40
2018-08-19T02:21:52.523Z,9.20
2018-08-19T02:24:20.870Z,9.87
2018-08-19T02:26:49.159Z,7.03
2018-08-19T02:29:29.835Z,10.33
2018-08-19T02:32:00.013Z,6.73
2018-08-19T02:34:30.594Z,9.77
2018-08-19T02:37:03.097Z,11.97
2018-08-19T02:39:32.108Z,11.37
2018-08-19T02:42:00.431Z,7.17
2018-08-19T02:44:28.645Z,9.73
2018-08-19T02:46:57.106Z,12.23
2018-08-19T02:49:25.469Z,10.00
2018-08-19T02:51:53.704Z,11.10
2018-08-19T02:54:22.095Z,7.97
2018-08-19T02:56:50.400Z,11.37
2018-08-19T02:59:18.646Z,10.67
2018-08-19T03:01:46.980Z,10.03
2018-08-19T03:04:15.343Z,8.27
2018-08-19T03:06:43.640Z,8.77
2018-08-19T03:09:11.988Z,11.57
2018-08-19T03:11:41.413Z,7.50
2018-08-19T03:14:09.766Z,8.43
2018-08-19T03:16:38.165Z,9.90
2018-08-19T03:19:08.517Z,10.10
2018-08-19T03:21:36.775Z,10.20
2018-08-19T03:24:05.100Z,12.50
2018-08-19T03:26:33.382Z,9.60
2018-08-19T03:29:06.053Z,8.33
2018-08-19T03:31:34.327Z,10.80
2018-08-19T03:34:02.572Z,14.47
2018-08-19T03:36:30.817Z,8.73
2018-08-19T03:39:08.043Z,12.27
2018-08-19T03:41:36.322Z,10.17
2018-08-19T03:44:04.647Z,11.63
2018-08-19T03:46:32.974Z,10.37
2018-08-19T03:49:01.233Z,10.87
2018-08-19T03:51:29.527Z,10.53
2018-08-19T03:53:57.829Z,10.57
2018-08-19T03:56:26.138Z,10.37
2018-08-19T03:59:00.353Z,12.50
2018-08-19T04:01:35.633Z,10.23
2018-08-19T04:04:03.897Z,10.77
2018-08-19T04:06:32.314Z,10.23
2018-08-19T04:09:00.580Z,14.30
2018-08-19T04:11:28.830Z,14.13
2018-08-19T04:13:57.098Z,10.67
2018-08-19T04:16:25.316Z,14.30
2018-08-19T04:19:00.693Z,13.93
2018-08-19T04:21:28.959Z,15.60
2018-08-19T04:23:57.242Z,11.03
2018-08-19T04:26:25.547Z,16.47
2018-08-19T04:28:53.862Z,12.73
2018-08-19T04:31:23.478Z,9.57
2018-08-19T04:33:51.833Z,10.93
2018-08-19T04:36:21.176Z,14.63
2018-08-19T04:38:49.477Z,12.03
2018-08-19T04:41:17.821Z,12.03
2018-08-19T04:43:46.807Z,13.97
2018-08-19T04:46:15.472Z,11.60
2018-08-19T04:48:44.943Z,14.73
2018-08-19T04:51:13.286Z,15.17
2018-08-19T04:53:41.536Z,10.90
2018-08-19T04:56:09.842Z,10.20
2018-08-19T04:58:38.089Z,16.07
2018-08-19T05:01:06.442Z,15.93
2018-08-19T05:03:34.700Z,14.97
2018-08-19T05:06:03.002Z,11.40
2018-08-19T05:08:31.395Z,13.73
2018-08-19T05:10:59.659Z,13.30
2018-08-19T05:13:28.886Z,10.40
2018-08-19T05:15:57.293Z,14.77
2018-08-19T05:18:25.505Z,11.27
2018-08-19T05:20:56.281Z,14.10
2018-08-19T05:23:24.529Z,14.07
2018-08-19T05:25:56.920Z,14.77
2018-08-19T05:28:25.258Z,11.93
2018-08-19T05:30:53.532Z,13.00
2018-08-19T05:33:21.896Z,14.63
2018-08-19T05:35:50.312Z,16.37
2018-08-19T05:38:18.578Z,19.37
2018-08-19T05:40:54.032Z,14.60
2018-08-19T05:43:23.081Z,16.17
2018-08-19T05:45:55.000Z,13.93
2018-08-19T05:48:23.462Z,13.87
2018-08-19T05:50:51.787Z,13.77
2018-08-19T05:53:20.443Z,20.90
2018-08-19T05:55:48.751Z,15.17
2018-08-19T05:58:17.303Z,18.67
2018-08-19T06:00:50.918Z,16.30
2018-08-19T06:03:19.239Z,14.13
2018-08-19T06:05:47.559Z,19.10
2018-08-19T06:08:16.486Z,19.60
2018-08-19T06:10:44.721Z,16.87
2018-08-19T06:13:13.205Z,17.83
2018-08-19T06:15:41.525Z,15.50
2018-08-19T06:18:10.065Z,20.20
2018-08-19T06:20:38.353Z,14.90
2018-08-19T06:23:06.691Z,18.27
2018-08-19T06:25:35.013Z,17.17
2018-08-19T06:28:03.262Z,14.10
2018-08-19T06:30:31.601Z,16.53
2018-08-19T06:32:59.985Z,17.80
2018-08-19T06:35:28.220Z,17.13
2018-08-19T06:37:56.540Z,14.37
2018-08-19T06:40:24.850Z,16.83
2018-08-19T06:42:53.142Z,19.47
2018-08-19T06:45:21.460Z,15.77
2018-08-19T06:47:49.785Z,17.20
2018-08-19T06:50:24.323Z,20.93
2018-08-19T06:52:53.221Z,16.30
2018-08-19T06:55:21.645Z,21.93
2018-08-19T06:57:49.957Z,16.47
2018-08-19T07:00:23.736Z,20.33
2018-08-19T07:02:52.046Z,18.33
2018-08-19T07:05:20.505Z,19.03
2018-08-19T07:07:48.835Z,23.17
2018-08-19T07:10:24.877Z,19.30
2018-08-19T07:12:57.357Z,16.00
2018-08-19T07:15:26.983Z,19.77
2018-08-19T07:17:55.190Z,14.60
2018-08-19T07:20:23.448Z,15.53
2018-08-19T07:22:51.666Z,13.90
2018-08-19T07:25:19.970Z,22.77
2018-08-19T07:27:48.217Z,17.33
2018-08-19T07:30:16.448Z,20.63
2018-08-19T07:32:44.741Z,14.20
2018-08-19T07:35:13.198Z,21.07
2018-08-19T07:37:41.483Z,18.60
2018-08-19T07:40:09.723Z,21.63
2018-08-19T07:42:38.024Z,17.70
2018-08-19T07:45:06.359Z,26.83
2018-08-19T07:47:34.682Z,18.60
2018-08-19T07:50:03.533Z,23.37
2018-08-19T07:52:31.811Z,23.93
2018-08-19T07:55:00.143Z,17.70
2018-08-19T07:57:29.463Z,20.90
2018-08-19T07:59:57.776Z,20.10
2018-08-19T08:02:28.776Z,18.63
2018-08-19T08:04:57.013Z,24.77
2018-08-19T08:07:27.719Z,22.77
2018-08-19T08:09:56.370Z,21.27
2018-08-19T08:12:24.708Z,20.90
2018-08-19T08:14:53.954Z,26.70
2018-08-19T08:17:23.494Z,22.33
2018-08-19T08:19:57.077Z,26.97
2018-08-19T08:22:27.529Z,21.03
2018-08-19T08:24:55.969Z,25.20
2018-08-19T08:27:24.263Z,25.17
2018-08-19T08:29:52.679Z,34.97
2018-08-19T08:32:20.922Z,25.13
2018-08-19T08:34:49.238Z,25.80
2018-08-19T08:37:17.533Z,26.07
2018-08-19T08:39:45.866Z,23.83
2018-08-19T08:42:14.131Z,25.80
2018-08-19T08:44:42.405Z,18.90
2018-08-19T08:47:12.349Z,17.57
2018-08-19T08:49:46.631Z,20.50
2018-08-19T08:52:21.359Z,23.93
2018-08-19T08:54:58.342Z,20.13
2018-08-19T08:57:26.828Z,27.20
2018-08-19T08:59:55.440Z,19.13
2018-08-19T09:02:23.772Z,19.40
2018-08-19T09:04:53.161Z,19.43
2018-08-19T09:07:21.737Z,19.83
2018-08-19T09:09:50.332Z,21.40
2018-08-19T09:12:28.658Z,18.10
2018-08-19T09:14:57.041Z,16.30
2018-08-19T09:17:25.371Z,16.77
2018-08-19T09:19:53.730Z,16.00
2018-08-19T09:22:22.005Z,21.43
2018-08-19T09:24:50.262Z,18.70
2018-08-19T09:27:18.510Z,15.47
2018-08-19T09:29:46.776Z,14.83
2018-08-19T09:32:15.123Z,14.37
2018-08-19T09:34:43.355Z,19.57
2018-08-19T09:37:11.606Z,16.00
2018-08-19T09:39:39.883Z,16.57
2018-08-19T09:42:11.146Z,15.93
2018-08-19T09:44:40.059Z,12.20
2018-08-19T09:47:08.329Z,14.13
2018-08-19T09:49:36.810Z,11.83
2018-08-19T09:52:05.167Z,11.23
2018-08-19T09:54:34.178Z,12.70
2018-08-19T09:57:02.825Z,14.00
2018-08-19T09:59:31.129Z,10.50
2018-08-19T10:01:59.401Z,8.53
2018-08-19T10:04:27.922Z,11.80
2018-08-19T10:07:06.438Z,9.40
2018-08-19T10:09:34.858Z,6.53
2018-08-19T10:12:03.182Z,6.73
2018-08-19T10:14:31.482Z,8.53
2018-08-19T10:16:59.734Z,9.17
2018-08-19T10:19:28.002Z,9.40
2018-08-19T10:21:56.298Z,10.50
2018-08-19T10:24:26.680Z,13.60
2018-08-19T10:26:55.326Z,7.93
2018-08-19T10:29:23.598Z,6.43
2018-08-19T10:32:00.499Z,8.10
2018-08-19T10:34:30.029Z,7.07
2018-08-19T10:36:59.099Z,10.37
2018-08-19T10:39:27.437Z,9.90
2018-08-19T10:42:12.418Z,6.37
2018-08-19T10:44:40.662Z,8.73
2018-08-19T10:47:08.888Z,9.67
2018-08-19T10:49:37.178Z,9.90
2018-08-19T10:52:07.706Z,9.93
2018-08-19T10:54:36.085Z,6.83
2018-08-19T10:57:16.241Z,6.33
2018-08-19T10:59:44.776Z,7.23
2018-08-19T11:02:12.952Z,10.80
2018-08-19T11:04:41.260Z,7.93
2018-08-19T11:07:09.499Z,7.60
2018-08-19T11:09:49.222Z,7.00
2018-08-19T11:12:17.588Z,6.93
2018-08-19T11:14:45.803Z,4.97
2018-08-19T11:17:14.354Z,7.80
2018-08-19T11:19:42.645Z,6.87
2018-08-19T11:22:10.935Z,8.90
2018-08-19T11:24:39.290Z,8.40
2018-08-19T11:27:07.775Z,6.83
2018-08-19T11:29:40.857Z,8.07
2018-08-19T11:32:09.420Z,6.60
2018-08-19T11:34:37.752Z,6.30
2018-08-19T11:37:06.066Z,5.43
2018-08-19T11:39:39.843Z,5.30
2018-08-19T11:42:08.108Z,6.87
2018-08-19T11:44:36.597Z,5.30
2018-08-19T11:47:04.861Z,6.53
2018-08-19T11:49:33.142Z,6.77
2018-08-19T11:52:02.929Z,6.83
2018-08-19T11:54:32.228Z,5.30
2018-08-19T11:57:06.574Z,5.10
2018-08-19T11:59:37.645Z,4.40
2018-08-19T12:02:07.458Z,5.50
2018-08-19T12:04:35.681Z,4.67
2018-08-19T12:07:03.937Z,4.97
2018-08-19T12:09:32.265Z,5.73
2018-08-19T12:12:00.561Z,9.23
2018-08-19T12:14:32.226Z,8.40
2018-08-19T12:17:00.835Z,8.50
2018-08-19T12:19:30.183Z,9.67
2018-08-19T12:22:02.553Z,9.67
2018-08-19T12:24:53.219Z,9.00
2018-08-19T12:27:23.206Z,8.97
2018-08-19T12:29:58.282Z,8.60
2018-08-19T12:32:28.393Z,8.63
2018-08-19T12:34:58.967Z,11.03
2018-08-19T12:37:28.491Z,10.70
2018-08-19T12:39:57.227Z,9.33
2018-08-19T12:42:26.880Z,10.23
2018-08-19T12:45:03.022Z,11.23
2018-08-19T12:47:31.293Z,11.07
2018-08-19T12:50:01.157Z,11.30
2018-08-19T12:52:30.594Z,13.10
2018-08-19T12:55:03.253Z,12.40
2018-08-19T12:57:31.549Z,9.90
2018-08-19T13:00:16.123Z,11.13
2018-08-19T13:02:45.838Z,12.00
2018-08-19T13:05:15.126Z,12.40
2018-08-19T13:07:43.545Z,10.53
2018-08-19T13:10:11.785Z,10.47
2018-08-19T13:12:44.101Z,11.30
2018-08-19T13:15:12.365Z,9.30
2018-08-19T13:17:40.853Z,10.37
2018-08-19T13:20:09.175Z,8.17
2018-08-19T13:22:45.705Z,7.33
2018-08-19T13:25:13.959Z,7.47
2018-08-19T13:27:42.221Z,10.60
2018-08-19T13:30:10.506Z,8.73
2018-08-19T13:32:38.758Z,9.63
2018-08-19T13:35:07.057Z,7.40
2018-08-19T13:37:35.416Z,8.17
2018-08-19T13:40:04.310Z,7.73
2018-08-19T13:42:39.474Z,7.00
2018-08-19T13:45:13.184Z,8.07
2018-08-19T13:47:42.755Z,9.13
2018-08-19T13:50:11.335Z,12.47
2018-08-19T13:52:40.130Z,12.47
2018-08-19T13:55:10.024Z,8.30
2018-08-19T13:57:38.310Z,9.97
2018-08-19T14:00:13.358Z,12.40
2018-08-19T14:02:41.718Z,10.50
2018-08-19T14:05:09.973Z,11.13
2018-08-19T14:07:38.266Z,15.10
2018-08-19T14:10:08.013Z,9.50
2018-08-19T14:12:36.323Z,10.33
2018-08-19T14:15:05.161Z,9.07
2018-08-19T14:17:33.416Z,10.53
2018-08-19T14:20:01.715Z,10.50
2018-08-19T14:22:30.446Z,11.00
2018-08-19T14:24:58.734Z,9.77
2018-08-19T14:27:26.989Z,10.23
2018-08-19T14:29:55.751Z,11.00
2018-08-19T14:32:33.449Z,12.13
2018-08-19T14:35:02.725Z,8.63
2018-08-19T14:37:30.984Z,10.50
2018-08-19T14:40:00.173Z,8.93
2018-08-19T14:42:28.401Z,9.50
2018-08-19T14:44:57.764Z,8.03
2018-08-19T14:47:26.467Z,8.00
2018-08-19T14:49:55.457Z,11.70
2018-08-19T14:52:23.717Z,9.10
2018-08-19T14:54:51.930Z,8.10
2018-08-19T14:57:20.192Z,10.47
2018-08-19T14:59:48.522Z,12.27
2018-08-19T15:02:16.831Z,10.47
2018-08-19T15:04:46.433Z,7.77
2018-08-19T15:07:14.725Z,7.80
2018-08-19T15:09:47.514Z,8.43
2018-08-19T15:12:19.510Z,9.27
2018-08-19T15:14:48.186Z,9.57
2018-08-19T15:17:16.548Z,8.53
2018-08-19T15:19:47.624Z,10.63
2018-08-19T15:22:16.254Z,8.73
2018-08-19T15:24:44.494Z,10.50
2018-08-19T15:27:12.794Z,11.63
2018-08-19T15:29:42.701Z,9.83
2018-08-19T15:32:11.302Z,9.57
2018-08-19T15:34:39.298Z,8.63
2018-08-19T15:37:07.650Z,9.80
2018-08-19T15:39:36.175Z,8.33
2018-08-19T15:42:04.461Z,8.70
2018-08-19T15:44:32.733Z,11.03
2018-08-19T15:47:01.069Z,10.73
2018-08-19T15:49:29.265Z,9.50
2018-08-19T15:51:58.117Z,10.90
2018-08-19T15:54:26.445Z,13.20
2018-08-19T15:56:58.864Z,21.93
2018-08-19T15:59:27.629Z,15.27
2018-08-19T16:01:55.993Z,14.43
2018-08-19T16:04:24.733Z,15.00
2018-08-19T16:06:54.219Z,15.37
2018-08-19T16:09:23.838Z,13.90
2018-08-19T16:11:52.609Z,16.63
2018-08-19T16:14:23.566Z,17.27
2018-08-19T16:16:52.281Z,21.27
2018-08-19T16:19:20.713Z,17.03
2018-08-19T16:21:50.170Z,25.07
2018-08-19T16:24:18.529Z,16.70
2018-08-19T16:26:46.750Z,18.00
2018-08-19T16:29:15.374Z,17.13
2018-08-19T16:31:43.662Z,13.23
2018-08-19T16:34:12.162Z,17.27
2018-08-19T16:36:40.348Z,17.37
2018-08-19T16:39:12.631Z,18.20
2018-08-19T16:41:40.862Z,17.50
2018-08-19T16:44:09.514Z,14.57
2018-08-19T16:46:37.922Z,19.10
2018-08-19T16:49:06.303Z,13.90
2018-08-19T16:51:34.572Z,15.30
2018-08-19T16:54:02.790Z,15.47
2018-08-19T16:56:31.077Z,19.00
2018-08-19T16:58:59.369Z,14.73
2018-08-19T17:01:27.636Z,15.53
2018-08-19T17:03:56.006Z,18.43
2018-08-19T17:06:24.279Z,14.73
2018-08-19T17:08:52.608Z,14.83
2018-08-19T17:11:20.770Z,13.93
2018-08-19T17:13:49.059Z,12.37
2018-08-19T17:16:17.347Z,15.20
2018-08-19T17:18:45.572Z,20.70
2018-08-19T17:21:13.938Z,17.77
2018-08-19T17:23:42.317Z,14.70
2018-08-19T17:26:18.186Z,14.70
2018-08-19T17:28:46.417Z,15.10
2018-08-19T17:31:21.505Z,16.00
2018-08-19T17:33:49.791Z,12.70
2018-08-19T17:36:37.442Z,10.40
2018-08-19T17:39:07.687Z,11.70
2018-08-19T17:41:35.869Z,8.90
2018-08-19T17:44:04.164Z,12.53
2018-08-19T17:46:32.392Z,10.93
2018-08-19T17:49:00.659Z,14.03
2018-08-19T17:51:32.777Z,9.13
2018-08-19T17:54:01.149Z,13.47
2018-08-19T17:56:29.444Z,9.57
2018-08-19T17:58:57.760Z,10.13
2018-08-19T18:01:26.033Z,9.67
2018-08-19T18:03:54.299Z,13.77
2018-08-19T18:06:22.534Z,10.33
2018-08-19T18:08:51.944Z,10.03
2018-08-19T18:11:20.665Z,10.57
2018-08-19T18:13:49.230Z,8.03
2018-08-19T18:16:17.565Z,7.30
2018-08-19T18:18:46.574Z,9.00
2018-08-19T18:21:14.970Z,10.80
2018-08-19T18:23:45.019Z,9.90
2018-08-19T18:26:13.344Z,4.77
2018-08-19T18:28:43.650Z,4.97
2018-08-19T18:31:12.033Z,5.53
2018-08-19T18:33:51.487Z,6.47
2018-08-19T18:36:21.029Z,4.30
2018-08-19T18:38:49.314Z,5.97
2018-08-19T18:41:23.825Z,5.97
2018-08-19T18:43:54.358Z,4.43
2018-08-19T18:46:23.634Z,4.13
2018-08-19T18:48:57.147Z,5.33
2018-08-19T18:51:27.065Z,7.40
2018-08-19T18:53:55.361Z,5.67
2018-08-19T18:56:23.725Z,4.30
2018-08-19T18:58:52.228Z,3.20
2018-08-19T19:01:20.634Z,4.53
2018-08-19T19:03:48.895Z,7.20
2018-08-19T19:06:17.297Z,4.20
2018-08-19T19:08:45.523Z,7.10
2018-08-19T19:11:13.786Z,6.33
2018-08-19T19:13:42.094Z,6.43
2018-08-19T19:16:10.444Z,4.63
2018-08-19T19:18:38.738Z,4.83
2018-08-19T19:21:07.153Z,4.53
2018-08-19T19:23:39.874Z,6.40
2018-08-19T19:26:08.880Z,4.77
2018-08-19T19:28:37.225Z,6.97
2018-08-19T19:31:11.030Z,5.80
2018-08-19T19:33:39.267Z,6.07
2018-08-19T19:36:15.799Z,4.97
2018-08-19T19:38:58.948Z,4.80
2018-08-19T19:41:29.956Z,6.23
2018-08-19T19:43:58.254Z,3.80
2018-08-19T19:46:26.470Z,6.20
2018-08-19T19:48:54.731Z,5.70
2018-08-19T19:51:23.002Z,6.67
2018-08-19T19:53:51.246Z,5.40
2018-08-19T19:56:20.141Z,4.60
2018-08-19T19:58:49.595Z,6.53
2018-08-19T20:01:18.084Z,6.47
2018-08-19T20:03:51.790Z,5.50
2018-08-19T20:06:20.094Z,5.33
2018-08-19T20:08:48.362Z,5.53
2018-08-19T20:11:22.085Z,4.33
2018-08-19T20:13:50.401Z,8.97
2018-08-19T20:16:18.987Z,6.73
2018-08-19T20:18:47.268Z,7.40
2018-08-19T20:21:20.872Z,5.10
2018-08-19T20:23:49.214Z,7.73
2018-08-19T20:26:17.490Z,5.33
2018-08-19T20:28:47.017Z,4.43
2018-08-19T20:31:15.297Z,5.73
2018-08-19T20:33:43.527Z,7.00
2018-08-19T20:36:11.852Z,9.90
2018-08-19T20:38:40.198Z,5.40
2018-08-19T20:41:08.457Z,8.90
2018-08-19T20:43:36.710Z,4.53
2018-08-19T20:46:07.020Z,5.70
2018-08-19T20:48:35.582Z,7.60
2018-08-19T20:51:03.955Z,8.50
2018-08-19T20:53:32.270Z,7.63
2018-08-19T20:56:00.593Z,6.40
2018-08-19T20:58:28.818Z,6.80
2018-08-19T21:00:57.091Z,8.03
2018-08-19T21:03:25.351Z,5.03
2018-08-19T21:05:53.622Z,6.50
2018-08-19T21:08:21.858Z,7.10
2018-08-19T21:10:50.855Z,5.90
2018-08-19T21:13:20.089Z,8.00
2018-08-19T21:15:50.709Z,10.03
2018-08-19T21:18:18.961Z,8.23
2018-08-19T21:20:47.215Z,6.10
2018-08-19T21:23:15.827Z,5.40
2018-08-19T21:25:50.545Z,5.40
2018-08-19T21:28:19.390Z,5.60
2018-08-19T21:30:47.667Z,7.00
2018-08-19T21:33:15.955Z,11.10
2018-08-19T21:35:50.880Z,8.10
2018-08-19T21:38:19.326Z,8.60
2018-08-19T21:40:47.596Z,5.57
2018-08-19T21:43:15.956Z,5.33
2018-08-19T21:45:44.198Z,5.60
2018-08-19T21:48:14.402Z,9.87
2018-08-19T21:50:42.727Z,6.53
2018-08-19T21:53:13.614Z,8.53
2018-08-19T21:55:43.102Z,7.13
2018-08-19T21:58:11.416Z,7.10
2018-08-19T22:01:16.231Z,6.97
2018-08-19T22:03:48.822Z,6.73
2018-08-19T22:06:17.171Z,11.10
2018-08-19T22:08:45.603Z,9.37
2018-08-19T22:11:13.870Z,7.63
2018-08-19T22:13:42.512Z,9.27
2018-08-19T22:16:10.870Z,9.80
2018-08-19T22:18:39.106Z,8.37
2018-08-19T22:21:23.920Z,10.37
2018-08-19T22:23:55.474Z,9.77
2018-08-19T22:26:23.797Z,13.70
2018-08-19T22:29:08.777Z,10.70
2018-08-19T22:31:37.094Z,11.60
2018-08-19T22:34:05.345Z,15.27
2018-08-19T22:36:33.678Z,13.23
2018-08-19T22:39:01.936Z,14.93
2018-08-19T22:41:32.481Z,11.03
2018-08-19T22:44:00.742Z,10.83
2018-08-19T22:46:29.200Z,7.20
2018-08-19T22:48:58.109Z,10.20
2018-08-19T22:51:31.963Z,9.73
2018-08-19T22:54:00.265Z,12.63
2018-08-19T22:56:28.503Z,12.17
2018-08-19T22:58:56.888Z,12.53
2018-08-19T23:01:29.416Z,12.57
2018-08-19T23:04:01.698Z,11.20
2018-08-19T23:06:30.487Z,13.57
2018-08-19T23:08:58.791Z,8.73
2018-08-19T23:11:32.991Z,14.47
2018-08-19T23:14:12.873Z,13.97
2018-08-19T23:16:47.719Z,13.17
2018-08-19T23:19:21.283Z,16.53
2018-08-19T23:21:49.709Z,10.50
2018-08-19T23:24:18.265Z,12.90
2018-08-19T23:26:46.510Z,13.40
2018-08-19T23:29:14.782Z,12.37
2018-08-19T23:31:43.092Z,10.80
2018-08-19T23:34:11.505Z,13.17
2018-08-19T23:36:39.837Z,14.33
2018-08-19T23:39:08.992Z,10.77
2018-08-19T23:41:37.366Z,11.33
2018-08-19T23:44:12.054Z,22.23
2018-08-19T23:46:40.341Z,17.40
2018-08-19T23:49:08.651Z,16.87
2018-08-19T23:51:36.954Z,17.07
2018-08-19T23:54:05.218Z,17.13
2018-08-19T23:56:33.500Z,15.30
2018-08-19T23:59:01.889Z,8.57
